Time;durP1;ratioP1;P1;durP2;ratioP2;P2;SDS_P1;SDS_P2;PMS_P1;PMS_P2;Temp;Humidity;BMP_temperature;BMP_pressure;BME280_temperature;BME280_humidity;BME280_pressure;Samples;Min_cycle;Max_cycle;Signal;HPM_P1;HPM_P2
2024/01/07 00:01:00;;;;;;;1.42;0.93;;;;;;;4.66;100.00;92607.97;5119949;28;20023;-91
2024/01/07 00:03:26;;;;;;;3.72;1.05;;;;;;;4.71;100.00;92607.16;5119892;28;20040;-91
2024/01/07 00:05:54;;;;;;;1.58;1.10;;;;;;;4.92;100.00;92605.13;5127997;27;20512;-91
2024/01/07 00:08:21;;;;;;;1.70;1.08;;;;;;;4.69;100.00;92601.47;5157288;27;20023;-90
2024/01/07 00:10:46;;;;;;;1.35;1.00;;;;;;;4.71;100.00;92607.16;5155405;27;20432;-92
2024/01/07 00:13:11;;;;;;;1.27;1.13;;;;;;;4.70;100.00;92608.19;5115843;28;20035;-91
2024/01/07 00:15:37;;;;;;;1.95;0.77;;;;;;;4.58;100.00;92603.38;5099789;27;20152;-91
2024/01/07 00:18:02;;;;;;;1.42;1.00;;;;;;;4.82;100.00;92595.63;5157632;27;20034;-91
2024/01/07 00:20:28;;;;;;;1.83;0.95;;;;;;;4.76;100.00;92600.09;5157119;27;20027;-91
2024/01/07 00:22:53;;;;;;;1.35;1.10;;;;;;;4.83;100.00;92604.22;5157092;27;20098;-90
2024/01/07 00:25:19;;;;;;;2.53;1.10;;;;;;;4.79;100.00;92599.53;5140325;27;20038;-91
2024/01/07 00:27:44;;;;;;;1.30;0.95;;;;;;;4.92;100.00;92597.34;5122009;28;20038;-91
2024/01/07 00:30:10;;;;;;;1.13;0.80;;;;;;;4.86;100.00;92599.22;5115739;28;20030;-91
2024/01/07 00:32:36;;;;;;;0.77;0.77;;;;;;;4.84;100.00;92603.91;5115947;28;20036;-91
2024/01/07 00:35:02;;;;;;;1.33;1.00;;;;;;;5.00;100.00;92596.75;5116717;28;20035;-90
2024/01/07 00:37:27;;;;;;;1.35;0.90;;;;;;;4.76;100.00;92602.69;5115864;28;20035;-91
2024/01/07 00:39:53;;;;;;;1.27;0.90;;;;;;;4.81;100.00;92604.47;5102822;28;20314;-91
2024/01/07 00:42:18;;;;;;;1.08;0.88;;;;;;;4.57;100.00;92604.44;5119713;28;20135;-91
2024/01/07 00:44:44;;;;;;;1.90;1.00;;;;;;;4.57;100.00;92602.59;5119488;28;20532;-91
2024/01/07 00:47:09;;;;;;;1.73;1.25;;;;;;;4.59;100.00;92605.72;5119482;28;20333;-90
2024/01/07 00:49:34;;;;;;;1.15;1.02;;;;;;;4.41;100.00;92607.16;5102568;28;20028;-91
2024/01/07 00:52:00;;;;;;;1.30;1.02;;;;;;;4.63;100.00;92606.72;5109927;27;20031;-90
2024/01/07 00:54:25;;;;;;;4.60;1.20;;;;;;;4.69;100.00;92606.66;5140056;27;20446;-90
2024/01/07 00:56:51;;;;;;;2.47;1.73;;;;;;;4.54;100.00;92610.94;5139713;27;20034;-91
2024/01/07 00:59:16;;;;;;;1.80;1.40;;;;;;;4.53;100.00;92609.38;5131416;27;20427;-91
2024/01/07 01:01:41;;;;;;;2.90;1.48;;;;;;;4.27;100.00;92616.59;5160552;27;20034;-91
2024/01/07 01:04:07;;;;;;;1.60;1.33;;;;;;;4.33;100.00;92618.88;5143373;27;20023;-91
2024/01/07 01:06:32;;;;;;;1.65;1.15;;;;;;;4.31;100.00;92617.59;5143594;27;20026;-92
2024/01/07 01:08:58;;;;;;;1.63;1.40;;;;;;;4.32;100.00;92611.38;5143293;27;20457;-91
2024/01/07 01:11:23;;;;;;;2.20;1.70;;;;;;;4.18;100.00;92624.19;5143897;27;20025;-90
2024/01/07 01:13:49;;;;;;;1.80;1.30;;;;;;;4.33;100.00;92620.69;5160276;27;20030;-91
2024/01/07 01:16:14;;;;;;;2.88;1.52;;;;;;;4.17;100.00;92620.78;5143106;27;20023;-91
2024/01/07 01:18:40;;;;;;;1.25;0.90;;;;;;;4.16;100.00;92623.66;5143024;27;20019;-91
2024/01/07 01:21:05;;;;;;;2.22;1.42;;;;;;;4.27;100.00;92616.59;5160490;27;20030;-92
2024/01/07 01:23:30;;;;;;;1.30;0.88;;;;;;;4.28;100.00;92626.69;5142980;27;20019;-92
2024/01/07 01:25:56;;;;;;;3.00;1.20;;;;;;;4.10;100.00;92628.13;5143011;27;20023;-91
2024/01/07 01:28:21;;;;;;;3.00;0.95;;;;;;;4.18;100.00;92622.34;5148476;27;20023;-92
2024/01/07 01:30:47;;;;;;;2.60;1.30;;;;;;;4.03;100.00;92630.22;5139174;27;20019;-91
2024/01/07 01:33:12;;;;;;;7.20;1.40;;;;;;;4.08;100.00;92628.38;5140313;27;20072;-91
2024/01/07 01:35:40;;;;;;;1.75;1.23;;;;;;;4.24;100.00;92630.88;5122467;27;20042;-92
2024/01/07 01:38:05;;;;;;;2.63;1.50;;;;;;;4.22;100.00;92623.34;5139339;27;20037;-91
2024/01/07 01:40:31;;;;;;;1.50;1.10;;;;;;;4.12;100.00;92623.44;5139288;27;20026;-90
2024/01/07 01:42:56;;;;;;;1.83;1.10;;;;;;;4.31;100.00;92636.53;5139067;27;20033;-91
2024/01/07 01:45:22;;;;;;;1.85;1.10;;;;;;;4.19;100.00;92629.06;5121983;27;20057;-92
2024/01/07 01:47:47;;;;;;;2.50;1.30;;;;;;;4.53;100.00;92630.91;5121865;27;20034;-91
2024/01/07 01:50:13;;;;;;;3.10;1.20;;;;;;;4.20;100.00;92635.81;5121381;27;20100;-92
2024/01/07 01:52:39;;;;;;;2.40;1.27;;;;;;;4.13;100.00;92629.38;5109207;28;20056;-91
2024/01/07 01:55:04;;;;;;;2.80;1.30;;;;;;;4.41;100.00;92634.88;5130842;27;20036;-91
2024/01/07 01:57:33;;;;;;;2.53;1.45;;;;;;;4.39;100.00;92628.16;5118048;28;20095;-91
2024/01/07 02:00:03;;;;;;;1.75;1.20;;;;;;;4.44;100.00;92627.34;5135308;27;20062;-91
2024/01/07 02:02:31;;;;;;;2.63;1.50;;;;;;;4.39;100.00;92633.34;5118115;28;20455;-90
2024/01/07 02:04:57;;;;;;;1.40;0.93;;;;;;;4.24;100.00;92628.28;5141639;27;20025;-92
2024/01/07 02:07:22;;;;;;;1.42;1.08;;;;;;;4.39;100.00;92628.16;5159235;27;20023;-91
2024/01/07 02:09:47;;;;;;;1.85;0.90;;;;;;;4.20;100.00;92632.47;5142064;27;20125;-91
2024/01/07 02:12:13;;;;;;;1.60;0.70;;;;;;;4.03;100.00;92628.41;5159073;27;20048;-91
2024/01/07 02:14:39;;;;;;;1.30;0.80;;;;;;;4.11;100.00;92632.25;5158992;27;20030;-90
2024/01/07 02:17:05;;;;;;;0.93;0.45;;;;;;;3.88;100.00;92629.25;5142228;27;20459;-92
2024/01/07 02:19:30;;;;;;;0.73;0.50;;;;;;;3.95;100.00;92636.75;5159038;27;20022;-92
2024/01/07 02:21:56;;;;;;;1.95;0.75;;;;;;;3.90;100.00;92634.94;5141877;27;20080;-91
2024/01/07 02:24:21;;;;;;;0.32;0.32;;;;;;;3.98;100.00;92636.19;5147976;27;20073;-90
2024/01/07 02:26:47;;;;;;;2.10;0.63;;;;;;;3.86;100.00;92633.16;5125162;27;20023;-91
2024/01/07 02:29:12;;;;;;;0.65;0.52;;;;;;;3.87;100.00;92624.34;5127817;27;20428;-90
2024/01/07 02:31:38;;;;;;;0.60;0.50;;;;;;;3.81;100.00;92623.63;5128977;27;20047;-91
2024/01/07 02:34:03;;;;;;;1.15;0.65;;;;;;;4.00;100.00;92628.16;5127851;27;20038;-91
2024/01/07 02:36:28;;;;;;;0.75;0.50;;;;;;;4.10;100.00;92625.53;5112771;27;20018;-91
2024/01/07 02:38:54;;;;;;;0.60;0.60;;;;;;;4.09;100.00;92619.56;5137900;27;20023;-92
2024/01/07 02:41:20;;;;;;;0.88;0.50;;;;;;;3.86;100.00;92626.19;5137858;27;20030;-92
2024/01/07 02:43:46;;;;;;;1.10;0.68;;;;;;;3.77;100.00;92628.56;5121111;27;20091;-92
2024/01/07 02:46:11;;;;;;;0.57;0.45;;;;;;;3.99;100.00;92624.78;5144132;27;20019;-91
2024/01/07 02:48:37;;;;;;;0.77;0.60;;;;;;;4.01;100.00;92620.09;5158288;27;20027;-91
2024/01/07 02:51:05;;;;;;;0.60;0.50;;;;;;;3.90;100.00;92618.66;5141306;27;20020;-91
2024/01/07 02:53:30;;;;;;;0.70;0.60;;;;;;;3.95;100.00;92621.97;5141585;27;20055;-92
2024/01/07 02:55:57;;;;;;;0.50;0.50;;;;;;;3.95;100.00;92621.19;5140491;27;20096;-91
2024/01/07 02:58:23;;;;;;;1.98;0.70;;;;;;;3.89;100.00;92620.44;5137874;27;20340;-91
2024/01/07 03:00:48;;;;;;;1.58;0.80;;;;;;;4.00;100.00;92620.41;5119703;27;20038;-92
2024/01/07 03:03:13;;;;;;;0.40;0.40;;;;;;;3.67;100.00;92618.22;5120425;27;20031;-91
2024/01/07 03:05:39;;;;;;;0.40;0.40;;;;;;;3.86;100.00;92620.19;5120555;27;20033;-91
2024/01/07 03:08:04;;;;;;;1.48;0.60;;;;;;;3.89;100.00;92622.28;5121431;27;20047;-92
2024/01/07 03:10:30;;;;;;;0.35;0.35;;;;;;;4.09;100.00;92621.38;5116841;28;20038;-92
2024/01/07 03:12:55;;;;;;;0.60;0.50;;;;;;;4.22;100.00;92625.19;5116960;28;20024;-91
2024/01/07 03:15:21;;;;;;;0.40;0.30;;;;;;;3.96;100.00;92614.97;5099386;28;20035;-88
2024/01/07 03:17:46;;;;;;;0.30;0.30;;;;;;;3.77;100.00;92614.81;5125624;27;20351;-87
2024/01/07 03:20:12;;;;;;;0.38;0.30;;;;;;;3.74;100.00;92615.34;5100002;28;20023;-87
2024/01/07 03:22:37;;;;;;;0.40;0.30;;;;;;;3.78;100.00;92616.34;5099989;28;20028;-87
2024/01/07 03:25:03;;;;;;;0.68;0.43;;;;;;;3.78;100.00;92611.97;5117869;28;20030;-87
2024/01/07 03:27:28;;;;;;;0.30;0.30;;;;;;;3.91;100.00;92613.19;5122144;27;20436;-87
2024/01/07 03:29:53;;;;;;;0.90;0.50;;;;;;;3.71;100.00;92611.47;5157742;27;20428;-87
2024/01/07 03:32:19;;;;;;;0.85;0.50;;;;;;;3.70;100.00;92617.69;5140847;27;20022;-88
2024/01/07 03:34:44;;;;;;;0.43;0.40;;;;;;;3.91;100.00;92617.59;5140681;27;20030;-87
2024/01/07 03:37:15;;;;;;;1.40;0.50;;;;;;;3.96;100.00;92618.34;5140353;27;20034;-88
2024/01/07 03:39:41;;;;;;;1.00;0.40;;;;;;;4.12;100.00;92609.69;5130654;27;20118;-88
2024/01/07 03:42:11;;;;;;;0.90;0.55;;;;;;;4.04;100.00;92614.41;5116466;28;20318;-88
2024/01/07 03:44:39;;;;;;;0.52;0.30;;;;;;;4.07;100.00;92613.09;5100534;28;20466;-87
2024/01/07 03:47:06;;;;;;;0.70;0.65;;;;;;;4.09;100.00;92613.59;5117378;28;20487;-88
2024/01/07 03:49:31;;;;;;;0.40;0.40;;;;;;;3.82;100.00;92622.56;5120524;27;20031;-88
2024/01/07 03:51:56;;;;;;;0.30;0.30;;;;;;;3.80;100.00;92616.88;5136938;27;20027;-88
2024/01/07 03:54:22;;;;;;;0.45;0.38;;;;;;;3.92;100.00;92619.16;5136755;27;20339;-87
2024/01/07 03:56:47;;;;;;;0.52;0.50;;;;;;;3.91;100.00;92615.78;5136713;27;20031;-87
2024/01/07 03:59:13;;;;;;;0.60;0.60;;;;;;;3.98;100.00;92620.66;5124683;27;20063;-87
2024/01/07 04:01:38;;;;;;;0.90;0.70;;;;;;;3.88;100.00;92613.72;5140465;27;20078;-87
2024/01/07 04:04:04;;;;;;;0.95;0.70;;;;;;;3.92;100.00;92617.31;5140410;27;20029;-88
2024/01/07 04:06:29;;;;;;;1.20;0.60;;;;;;;3.91;100.00;92615.78;5131670;28;20114;-88
2024/01/07 04:08:54;;;;;;;0.90;0.57;;;;;;;3.96;100.00;92626.13;5128594;27;20361;-87
2024/01/07 04:11:20;;;;;;;1.00;0.68;;;;;;;3.84;100.00;92617.09;5126176;27;20031;-88
2024/01/07 04:13:45;;;;;;;1.42;0.77;;;;;;;3.72;100.00;92614.84;5123939;27;20037;-88
2024/01/07 04:16:18;;;;;;;1.10;0.82;;;;;;;3.78;100.00;92617.16;5141176;27;20512;-88
2024/01/07 04:18:45;;;;;;;1.45;1.00;;;;;;;3.71;100.00;92614.06;5140804;27;20027;-88
2024/01/07 04:21:10;;;;;;;1.00;0.88;;;;;;;3.79;100.00;92615.31;5156383;27;20037;-87
2024/01/07 04:23:36;;;;;;;0.88;0.70;;;;;;;3.82;100.00;92617.41;5162663;27;20113;-87
2024/01/07 04:26:02;;;;;;;1.40;0.93;;;;;;;3.90;100.00;92616.81;5144738;27;20026;-88
2024/01/07 04:28:27;;;;;;;1.50;0.90;;;;;;;3.87;100.00;92622.53;5161928;27;20038;-87
2024/01/07 04:30:52;;;;;;;1.98;1.38;;;;;;;3.90;100.00;92618.66;5151303;27;20066;-87
2024/01/07 04:33:18;;;;;;;3.25;1.02;;;;;;;3.73;100.00;92624.97;5140539;27;20080;-87
2024/01/07 04:35:43;;;;;;;1.38;1.08;;;;;;;3.86;100.00;92622.78;5132338;27;20421;-87
2024/01/07 04:38:09;;;;;;;1.35;1.02;;;;;;;3.77;100.00;92628.56;5140421;27;20317;-87
2024/01/07 04:40:34;;;;;;;1.10;1.00;;;;;;;3.80;100.00;92628.00;5141636;27;20083;-87
2024/01/07 04:43:00;;;;;;;1.52;1.10;;;;;;;3.82;100.00;92635.53;5140373;27;20075;-88
2024/01/07 04:45:25;;;;;;;1.95;1.20;;;;;;;3.71;100.00;92628.84;5140343;27;20068;-87
2024/01/07 04:47:51;;;;;;;1.15;0.90;;;;;;;3.61;100.00;92629.69;5140101;27;20100;-88
2024/01/07 04:50:19;;;;;;;1.38;1.10;;;;;;;3.67;100.00;92637.16;5140274;27;20031;-87
2024/01/07 04:52:46;;;;;;;1.95;1.40;;;;;;;3.60;100.00;92638.47;5137747;27;20050;-87
2024/01/07 04:55:11;;;;;;;1.70;1.15;;;;;;;3.72;100.00;92636.34;5140174;27;20027;-87
2024/01/07 04:57:37;;;;;;;1.85;1.27;;;;;;;3.86;100.00;92644.31;5140022;27;20386;-87
2024/01/07 05:00:03;;;;;;;2.00;1.50;;;;;;;3.80;100.00;92638.38;5140138;27;20062;-87
2024/01/07 05:02:29;;;;;;;1.20;1.05;;;;;;;3.80;100.00;92638.38;5123182;27;20031;-87
2024/01/07 05:04:54;;;;;;;1.50;1.30;;;;;;;3.82;100.00;92641.47;5140069;27;20339;-88
2024/01/07 05:07:20;;;;;;;1.45;1.15;;;;;;;4.00;100.00;92641.88;5139802;27;20034;-87
2024/01/07 05:09:45;;;;;;;2.65;0.80;;;;;;;3.90;100.00;92641.97;5122724;27;20038;-87
2024/01/07 05:12:10;;;;;;;1.02;0.80;;;;;;;3.84;100.00;92651.56;5141276;27;20069;-88
2024/01/07 05:14:37;;;;;;;1.70;1.00;;;;;;;4.12;100.00;92638.19;5122868;27;20420;-88
2024/01/07 05:17:03;;;;;;;1.20;1.00;;;;;;;3.85;100.00;92650.53;5139676;27;20027;-88
2024/01/07 05:19:29;;;;;;;1.27;1.10;;;;;;;3.79;100.00;92647.19;5122889;27;20055;-88
2024/01/07 05:21:54;;;;;;;2.83;1.38;;;;;;;3.79;100.00;92647.19;5122459;27;20042;-88
2024/01/07 05:24:20;;;;;;;1.15;1.02;;;;;;;3.64;100.00;92649.84;5138627;27;20023;-88
2024/01/07 05:26:45;;;;;;;1.02;0.90;;;;;;;3.74;100.00;92649.81;5122530;27;20055;-88
2024/01/07 05:29:11;;;;;;;1.35;0.98;;;;;;;3.63;100.00;92651.66;5139934;27;20340;-88
2024/01/07 05:31:40;;;;;;;1.38;1.08;;;;;;;3.71;100.00;92644.38;5122071;27;20401;-88
2024/01/07 05:34:06;;;;;;;1.38;1.17;;;;;;;3.59;100.00;92658.41;5139508;27;20031;-88
2024/01/07 05:36:31;;;;;;;1.42;1.00;;;;;;;3.59;100.00;92649.88;5139392;27;20344;-88
2024/01/07 05:38:57;;;;;;;1.15;0.93;;;;;;;3.60;100.00;92659.97;5139201;27;20034;-88
2024/01/07 05:41:22;;;;;;;1.00;0.90;;;;;;;3.64;100.00;92653.19;5139288;27;20038;-87
2024/01/07 05:43:48;;;;;;;3.15;1.20;;;;;;;3.76;100.00;92662.47;5130429;27;20043;-87
2024/01/07 05:46:13;;;;;;;1.15;0.82;;;;;;;3.59;100.00;92663.59;5118649;28;20372;-88
2024/01/07 05:48:46;;;;;;;0.90;0.70;;;;;;;3.72;100.00;92661.47;5118308;28;20449;-88
2024/01/07 05:51:12;;;;;;;0.80;0.70;;;;;;;3.69;100.00;92657.59;5101848;28;20038;-88
2024/01/07 05:53:37;;;;;;;1.30;0.65;;;;;;;3.88;100.00;92659.59;5118377;28;20031;-88
2024/01/07 05:56:03;;;;;;;1.00;0.60;;;;;;;3.64;100.00;92655.03;5118473;28;20027;-89
2024/01/07 05:58:29;;;;;;;1.38;0.68;;;;;;;3.58;100.00;92663.84;5101504;28;20031;-89
2024/01/07 06:00:54;;;;;;;0.68;0.50;;;;;;;3.63;100.00;92669.03;5137752;27;20041;-88
2024/01/07 06:03:20;;;;;;;0.88;0.68;;;;;;;3.56;100.00;92677.06;5138857;27;20027;-88
2024/01/07 06:05:45;;;;;;;0.80;0.50;;;;;;;3.47;100.00;92674.25;5103739;28;20070;-89
2024/01/07 06:08:12;;;;;;;0.68;0.50;;;;;;;3.42;100.00;92686.44;5101071;28;20043;-88
2024/01/07 06:10:38;;;;;;;4.47;0.60;;;;;;;3.37;100.00;92677.66;5118272;27;20035;-88
2024/01/07 06:13:04;;;;;;;0.50;0.47;;;;;;;3.36;100.00;92683.84;5126908;27;20020;-88
2024/01/07 06:15:29;;;;;;;0.65;0.60;;;;;;;3.47;100.00;92687.22;5134960;27;20023;-88
2024/01/07 06:17:55;;;;;;;1.20;0.70;;;;;;;3.57;100.00;92693.38;5138490;27;20026;-88
2024/01/07 06:20:21;;;;;;;1.50;1.00;;;;;;;3.44;100.00;92689.53;5138409;27;20424;-88
2024/01/07 06:22:46;;;;;;;1.00;0.75;;;;;;;3.41;100.00;92697.84;5138381;27;20472;-89
2024/01/07 06:25:12;;;;;;;2.20;0.82;;;;;;;3.53;100.00;92690.56;5137992;27;20087;-89
2024/01/07 06:27:41;;;;;;;1.40;0.88;;;;;;;3.56;100.00;92699.59;5132347;27;20028;-88
2024/01/07 06:30:07;;;;;;;1.25;0.90;;;;;;;3.39;100.00;92700.69;5136726;27;20023;-88
2024/01/07 06:32:33;;;;;;;1.40;0.77;;;;;;;3.47;100.00;92696.78;5139881;27;20023;-88
2024/01/07 06:34:59;;;;;;;1.25;1.10;;;;;;;3.44;100.00;92699.91;5139268;27;20028;-88
2024/01/07 06:37:25;;;;;;;1.30;1.05;;;;;;;3.39;100.00;92700.69;5159970;27;20454;-89
2024/01/07 06:39:51;;;;;;;1.58;1.00;;;;;;;3.45;100.00;92698.84;5159075;27;20116;-88
2024/01/07 06:42:16;;;;;;;1.63;0.90;;;;;;;3.58;100.00;92710.47;5160030;27;20159;-88
2024/01/07 06:44:42;;;;;;;1.40;1.10;;;;;;;3.49;100.00;92711.03;5158717;27;20025;-88
2024/01/07 06:47:07;;;;;;;1.67;1.00;;;;;;;3.47;100.00;92707.91;5152785;27;20023;-88
2024/01/07 06:49:33;;;;;;;1.48;1.00;;;;;;;3.67;100.00;92708.88;5121092;27;20130;-89
2024/01/07 06:51:58;;;;;;;1.05;0.80;;;;;;;3.62;100.00;92712.25;5137722;27;20023;-89
2024/01/07 06:54:25;;;;;;;2.75;1.15;;;;;;;3.52;100.00;92717.50;5120741;27;20118;-88
2024/01/07 06:56:50;;;;;;;1.17;1.00;;;;;;;3.37;100.00;92715.72;5128396;27;20026;-88
2024/01/07 06:59:16;;;;;;;1.15;0.70;;;;;;;3.33;100.00;92719.88;5117207;28;20019;-88
2024/01/07 07:01:41;;;;;;;1.35;0.82;;;;;;;3.32;100.00;92718.31;5117410;28;20019;-88
2024/01/07 07:04:07;;;;;;;1.02;0.88;;;;;;;3.49;100.00;92738.72;5117139;28;20397;-88
2024/01/07 07:06:32;;;;;;;1.30;0.77;;;;;;;3.24;100.00;92735.91;5121959;27;20031;-88
2024/01/07 07:08:57;;;;;;;1.20;0.63;;;;;;;3.27;100.00;92739.00;5143764;27;20018;-88
2024/01/07 07:11:23;;;;;;;0.40;0.40;;;;;;;3.31;100.00;92735.66;5137540;27;20023;-88
2024/01/07 07:13:48;;;;;;;0.55;0.40;;;;;;;3.33;100.00;92743.94;5137390;27;20027;-88
2024/01/07 07:16:14;;;;;;;0.38;0.30;;;;;;;3.35;100.00;92734.09;5138653;27;20027;-87
2024/01/07 07:18:39;;;;;;;0.20;0.20;;;;;;;3.26;100.00;92758.97;5120813;27;20023;-88
2024/01/07 07:21:05;;;;;;;1.83;0.40;;;;;;;3.34;100.00;92757.66;5137362;27;20038;-87
2024/01/07 07:23:30;;;;;;;0.30;0.30;;;;;;;3.21;100.00;92762.31;5138532;27;20443;-88
2024/01/07 07:25:56;;;;;;;0.60;0.50;;;;;;;3.22;100.00;92756.13;5137216;27;20085;-87
2024/01/07 07:28:21;;;;;;;0.20;0.20;;;;;;;3.31;100.00;92765.94;5119809;27;20087;-87
2024/01/07 07:30:47;;;;;;;0.77;0.50;;;;;;;3.16;100.00;92759.75;5136862;27;20019;-88
2024/01/07 07:33:13;;;;;;;0.32;0.32;;;;;;;3.18;100.00;92772.41;5135425;27;20045;-87
2024/01/07 07:35:42;;;;;;;0.60;0.50;;;;;;;3.24;100.00;92772.16;5137122;27;20379;-88
2024/01/07 07:38:07;;;;;;;0.52;0.47;;;;;;;3.39;100.00;92771.38;5136945;27;20015;-88
2024/01/07 07:40:33;;;;;;;2.25;0.73;;;;;;;3.43;100.00;92773.44;5137293;27;20029;-88
2024/01/07 07:42:58;;;;;;;0.55;0.50;;;;;;;3.39;100.00;92773.97;5120055;27;20052;-88
2024/01/07 07:45:24;;;;;;;0.52;0.47;;;;;;;3.51;100.00;92784.03;5137224;27;20015;-87
2024/01/07 07:47:49;;;;;;;0.38;0.38;;;;;;;3.47;100.00;92774.47;5119269;27;20126;-87
2024/01/07 07:50:15;;;;;;;0.35;0.35;;;;;;;3.36;100.00;92778.88;5126116;27;20035;-88
2024/01/07 07:52:46;;;;;;;2.10;0.60;;;;;;;3.32;100.00;92783.03;5116399;28;20447;-87
2024/01/07 07:55:11;;;;;;;0.55;0.40;;;;;;;3.28;100.00;92781.97;5116304;28;20065;-88
2024/01/07 07:57:39;;;;;;;2.08;0.43;;;;;;;3.18;100.00;92783.56;5099230;28;20031;-87
2024/01/07 08:00:06;;;;;;;0.40;0.40;;;;;;;3.33;100.00;92782.75;5116173;28;20098;-88
2024/01/07 08:02:32;;;;;;;0.50;0.40;;;;;;;3.41;100.00;92789.22;5109611;28;20117;-88
2024/01/07 08:04:57;;;;;;;0.35;0.35;;;;;;;3.13;100.00;92786.13;5098818;28;20030;-86
2024/01/07 08:07:23;;;;;;;0.85;0.47;;;;;;;3.18;100.00;92793.91;5135677;28;20432;-86
2024/01/07 08:09:48;;;;;;;0.52;0.40;;;;;;;3.28;100.00;92781.97;5136498;28;20023;-87
2024/01/07 08:12:13;;;;;;;0.30;0.30;;;;;;;3.39;100.00;92789.50;5136636;28;20122;-86
2024/01/07 08:14:42;;;;;;;1.05;0.40;;;;;;;3.41;100.00;92789.22;5136331;28;20027;-86
2024/01/07 08:17:08;;;;;;;0.90;0.40;;;;;;;3.31;100.00;92797.00;5119478;28;20030;-86
2024/01/07 08:19:33;;;;;;;0.32;0.30;;;;;;;3.39;100.00;92788.72;5116906;28;20379;-87
2024/01/07 08:21:59;;;;;;;0.88;0.50;;;;;;;3.39;100.00;92792.09;5130227;28;20027;-86
2024/01/07 08:24:24;;;;;;;0.98;0.60;;;;;;;3.38;100.00;92798.31;5119322;28;20035;-85
2024/01/07 08:26:50;;;;;;;0.40;0.40;;;;;;;3.26;100.00;92797.78;5135312;28;20023;-86
2024/01/07 08:29:15;;;;;;;0.30;0.30;;;;;;;3.53;100.00;92797.50;5136598;28;20070;-86
2024/01/07 08:31:42;;;;;;;0.60;0.50;;;;;;;3.53;100.00;92799.31;5137459;28;20019;-85
2024/01/07 08:34:07;;;;;;;0.55;0.40;;;;;;;3.65;100.00;92796.44;5136242;28;20110;-85
2024/01/07 08:36:33;;;;;;;0.40;0.40;;;;;;;3.72;100.00;92807.28;5136288;28;20085;-85
2024/01/07 08:38:58;;;;;;;0.50;0.45;;;;;;;3.62;100.00;92802.91;5135987;28;20428;-85
2024/01/07 08:41:24;;;;;;;0.45;0.30;;;;;;;3.56;100.00;92810.94;5136197;28;20034;-85
2024/01/07 08:43:49;;;;;;;0.30;0.30;;;;;;;3.60;100.00;92817.19;5137230;27;20023;-86
2024/01/07 08:46:15;;;;;;;0.40;0.30;;;;;;;3.48;100.00;92807.88;5119127;28;20058;-86
2024/01/07 08:48:40;;;;;;;0.20;0.20;;;;;;;3.62;100.00;92807.34;5135930;28;20113;-88
2024/01/07 08:51:05;;;;;;;0.45;0.40;;;;;;;3.68;100.00;92821.81;5136971;28;20027;-88
2024/01/07 08:53:32;;;;;;;0.40;0.40;;;;;;;3.58;100.00;92824.41;5136318;28;20385;-88
2024/01/07 08:55:57;;;;;;;1.10;0.60;;;;;;;3.37;100.00;92816.69;5136313;28;20027;-88
2024/01/07 08:58:23;;;;;;;1.33;0.50;;;;;;;3.50;100.00;92820.53;5136077;27;20023;-88
2024/01/07 09:00:49;;;;;;;0.70;0.50;;;;;;;3.42;100.00;92819.25;5148981;27;20031;-88
2024/01/07 09:03:14;;;;;;;0.45;0.40;;;;;;;3.67;100.00;92821.06;5134899;27;20038;-88
2024/01/07 09:05:40;;;;;;;1.27;0.77;;;;;;;3.73;100.00;92815.84;5140008;27;20030;-89
2024/01/07 09:08:06;;;;;;;0.90;0.47;;;;;;;3.60;100.00;92824.94;5139810;27;20027;-89
2024/01/07 09:10:33;;;;;;;0.60;0.57;;;;;;;3.41;100.00;92825.47;5142566;27;20100;-89
2024/01/07 09:12:59;;;;;;;0.52;0.52;;;;;;;3.49;100.00;92826.75;5123074;27;20034;-89
2024/01/07 09:15:25;;;;;;;0.90;0.40;;;;;;;3.72;100.00;92835.78;5122790;27;20035;-88
2024/01/07 09:17:50;;;;;;;2.88;0.93;;;;;;;3.67;100.00;92835.81;5140900;27;20019;-89
2024/01/07 09:20:15;;;;;;;0.35;0.35;;;;;;;3.51;100.00;92841.00;5139709;27;20340;-90
2024/01/07 09:22:41;;;;;;;0.40;0.40;;;;;;;3.36;100.00;92836.59;5138894;27;20061;-88
2024/01/07 09:25:07;;;;;;;1.45;0.63;;;;;;;3.41;100.00;92828.06;5122713;27;20045;-89
2024/01/07 09:27:35;;;;;;;0.65;0.52;;;;;;;3.51;100.00;92841.00;5108727;27;20114;-88
2024/01/07 09:30:02;;;;;;;0.85;0.70;;;;;;;3.33;100.00;92844.88;5139577;27;20030;-89
2024/01/07 09:32:27;;;;;;;8.77;0.80;;;;;;;3.25;100.00;92840.25;5139067;27;20027;-87
2024/01/07 09:34:53;;;;;;;0.68;0.50;;;;;;;3.35;100.00;92839.47;5140870;27;20424;-87
2024/01/07 09:37:18;;;;;;;0.93;0.47;;;;;;;3.28;100.00;92834.53;5126949;27;20075;-87
2024/01/07 09:39:45;;;;;;;0.70;0.45;;;;;;;3.27;100.00;92840.75;5122478;27;20114;-87
2024/01/07 09:42:13;;;;;;;0.50;0.40;;;;;;;3.32;100.00;92834.81;5118928;28;20035;-87
2024/01/07 09:44:39;;;;;;;0.95;0.70;;;;;;;3.36;100.00;92841.00;5137615;27;20030;-87
2024/01/07 09:47:07;;;;;;;0.82;0.63;;;;;;;3.53;100.00;92844.09;5138883;27;20031;-87
2024/01/07 09:49:32;;;;;;;1.50;0.80;;;;;;;3.36;100.00;92830.66;5122212;27;20327;-87
2024/01/07 09:52:01;;;;;;;0.98;0.63;;;;;;;3.33;100.00;92851.91;5128387;27;20031;-87
2024/01/07 09:54:27;;;;;;;3.10;1.00;;;;;;;3.55;100.00;92849.03;5140056;27;20023;-87
2024/01/07 09:56:56;;;;;;;1.80;0.70;;;;;;;3.38;100.00;92849.28;5121524;27;20428;-87
2024/01/07 09:59:22;;;;;;;0.93;0.60;;;;;;;3.18;100.00;92850.84;5122047;27;20472;-87
2024/01/07 10:01:48;;;;;;;23.77;9.18;;;;;;;3.29;100.00;92845.66;5140079;27;20080;-87
2024/01/07 10:04:14;;;;;;;0.88;0.60;;;;;;;3.28;100.00;92844.09;5126995;27;20023;-87
2024/01/07 10:06:40;;;;;;;0.60;0.57;;;;;;;3.30;100.00;92847.22;5119408;28;20102;-87
2024/01/07 10:09:06;;;;;;;0.90;0.68;;;;;;;3.49;100.00;92839.69;5101184;28;20035;-87
2024/01/07 10:11:32;;;;;;;1.50;0.70;;;;;;;3.28;100.00;92842.31;5117880;28;20055;-87
2024/01/07 10:13:58;;;;;;;1.20;0.80;;;;;;;3.29;100.00;92848.25;5101232;28;20059;-87
2024/01/07 10:16:23;;;;;;;2.60;0.50;;;;;;;3.19;100.00;92842.06;5117962;28;20024;-87
2024/01/07 10:18:49;;;;;;;0.60;0.50;;;;;;;3.21;100.00;92839.97;5117473;28;20096;-87
2024/01/07 10:21:14;;;;;;;0.82;0.50;;;;;;;3.21;100.00;92842.56;5130584;27;20034;-88
2024/01/07 10:23:42;;;;;;;0.63;0.60;;;;;;;3.33;100.00;92841.53;5159218;27;20348;-87
2024/01/07 10:26:07;;;;;;;1.98;0.70;;;;;;;3.41;100.00;92838.41;5155968;27;20034;-87
2024/01/07 10:28:33;;;;;;;0.80;0.60;;;;;;;3.21;100.00;92845.16;5120875;27;20344;-87
2024/01/07 10:30:58;;;;;;;0.50;0.50;;;;;;;3.20;100.00;92842.81;5138197;27;20027;-87
2024/01/07 10:33:24;;;;;;;0.82;0.60;;;;;;;3.30;100.00;92842.03;5138270;27;20071;-87
2024/01/07 10:35:57;;;;;;;0.38;0.32;;;;;;;3.15;100.00;92833.22;5121417;27;20121;-87
2024/01/07 10:38:22;;;;;;;;;;;;;;;3.19;100.00;92836.09;5134624;27;20096;-87
2024/01/07 10:40:50;;;;;;;0.85;0.60;;;;;;;3.01;100.00;92835.56;5127263;27;19911;-87
2024/01/07 10:43:16;;;;;;;1.25;0.50;;;;;;;3.11;100.00;92839.97;5129995;27;20058;-87
2024/01/07 10:45:43;;;;;;;0.80;0.60;;;;;;;3.07;100.00;92838.94;5137861;27;20412;-87
2024/01/07 10:48:09;;;;;;;1.70;0.98;;;;;;;3.11;100.00;92839.97;5111067;27;20122;-88
2024/01/07 10:50:35;;;;;;;2.72;1.35;;;;;;;3.03;100.00;92833.50;5124712;27;20031;-88
2024/01/07 10:53:05;;;;;;;2.75;1.27;;;;;;;3.11;100.00;92833.00;5120561;27;20088;-87
2024/01/07 10:55:34;;;;;;;1.73;1.05;;;;;;;3.17;100.00;92838.16;5142582;27;20312;-87
2024/01/07 10:58:00;;;;;;;1.77;1.15;;;;;;;3.03;100.00;92827.56;5157121;27;20039;-87
2024/01/07 11:00:25;;;;;;;1.70;1.02;;;;;;;3.17;100.00;92838.94;5158374;27;20034;-87
2024/01/07 11:02:50;;;;;;;1.73;1.10;;;;;;;3.34;100.00;92841.25;5158357;27;20083;-87
2024/01/07 11:05:31;;;;;;;2.38;1.20;;;;;;;3.48;100.00;92833.75;5152136;27;20416;-87
2024/01/07 11:08:19;;;;;;;2.22;1.15;;;;;;;3.28;100.00;92831.94;5140765;27;20423;-87
2024/01/07 11:10:57;;;;;;;1.55;1.00;;;;;;;3.24;100.00;92838.69;5158240;27;20057;-87
2024/01/07 11:13:40;;;;;;;2.78;1.10;;;;;;;3.33;100.00;92826.75;5157252;27;20037;-87
2024/01/07 11:16:09;;;;;;;1.60;0.80;;;;;;;3.07;100.00;92826.75;5147071;27;20074;-87
2024/01/07 11:18:49;;;;;;;1.83;1.13;;;;;;;3.23;100.00;92827.56;5138561;27;20415;-88
2024/01/07 11:21:21;;;;;;;1.95;0.90;;;;;;;3.16;100.00;92832.22;5136519;27;20045;-88
2024/01/07 11:23:47;;;;;;;2.15;1.00;;;;;;;3.03;100.00;92820.56;5114469;27;20030;-87
2024/01/07 11:26:14;;;;;;;1.63;1.00;;;;;;;3.20;100.00;92832.47;5148185;27;20424;-87
2024/01/07 11:28:47;;;;;;;1.75;0.75;;;;;;;3.25;100.00;92822.13;5158588;27;20312;-88